createdAt,value
2023-05-14T00:00:04.266Z,100652.38
2023-05-14T00:02:31.084Z,100641.59
2023-05-14T00:04:57.824Z,100642.00
2023-05-14T00:07:30.827Z,100636.69
2023-05-14T00:09:58.328Z,100625.22
2023-05-14T00:12:26.487Z,100627.03
2023-05-14T00:14:53.591Z,100623.78
2023-05-14T00:17:20.274Z,100625.75
2023-05-14T00:19:46.961Z,100617.63
2023-05-14T00:22:13.604Z,100617.03
2023-05-14T00:24:40.238Z,100610.94
2023-05-14T00:27:07.362Z,100601.75
2023-05-14T00:29:34.171Z,100590.88
2023-05-14T00:32:01.000Z,100588.59
2023-05-14T00:34:27.645Z,100580.50
2023-05-14T00:36:54.379Z,100575.34
2023-05-14T00:39:21.101Z,100576.31
2023-05-14T00:41:47.743Z,100580.34
2023-05-14T00:44:14.352Z,100569.16
2023-05-14T00:46:41.043Z,100565.22
2023-05-14T00:49:07.897Z,100563.84
2023-05-14T00:51:34.757Z,100552.78
2023-05-14T00:54:01.443Z,100565.66
2023-05-14T00:56:28.167Z,100556.03
2023-05-14T00:58:54.948Z,100555.97
2023-05-14T01:01:21.833Z,100543.13
2023-05-14T01:03:49.211Z,100551.16
2023-05-14T01:06:15.956Z,100552.53
2023-05-14T01:09:17.895Z,100556.03
2023-05-14T01:11:55.979Z,100555.84
2023-05-14T01:14:26.586Z,100554.69
2023-05-14T01:16:56.948Z,100559.53
2023-05-14T01:19:32.675Z,100548.63
2023-05-14T01:21:59.317Z,100548.06
2023-05-14T01:24:25.978Z,100543.31
2023-05-14T01:26:53.492Z,100550.16
2023-05-14T01:29:22.575Z,100555.09
2023-05-14T01:31:50.593Z,100553.31
2023-05-14T01:34:20.482Z,100547.03
2023-05-14T01:36:47.437Z,100553.44
2023-05-14T01:39:15.420Z,100553.50
2023-05-14T01:41:42.839Z,100557.38
2023-05-14T01:44:10.106Z,100543.47
2023-05-14T01:46:37.044Z,100539.81
2023-05-14T01:49:03.749Z,100539.16
2023-05-14T01:51:31.008Z,100536.63
2023-05-14T01:53:57.664Z,100540.03
2023-05-14T01:56:25.845Z,100531.63
2023-05-14T01:58:52.710Z,100534.78
2023-05-14T02:01:19.425Z,100529.00
2023-05-14T02:03:46.190Z,100526.94
2023-05-14T02:06:12.889Z,100535.41
2023-05-14T02:08:39.611Z,100532.94
2023-05-14T02:11:06.233Z,100526.13
2023-05-14T02:13:32.812Z,100525.81
2023-05-14T02:15:59.493Z,100529.13
2023-05-14T02:18:26.180Z,100517.00
2023-05-14T02:20:52.944Z,100522.72
2023-05-14T02:23:25.647Z,100516.62
2023-05-14T02:25:57.934Z,100518.91
2023-05-14T02:28:24.601Z,100515.09
2023-05-14T02:30:51.245Z,100508.59
2023-05-14T02:33:17.916Z,100518.84
2023-05-14T02:35:44.843Z,100519.94
2023-05-14T02:38:11.756Z,100509.03
2023-05-14T02:40:38.429Z,100503.19
2023-05-14T02:43:05.150Z,100493.59
2023-05-14T02:45:31.798Z,100510.00
2023-05-14T02:47:58.497Z,100503.72
2023-05-14T02:50:25.394Z,100501.56
2023-05-14T02:52:52.352Z,100491.69
2023-05-14T02:55:19.008Z,100492.88
2023-05-14T02:57:45.661Z,100488.19
2023-05-14T03:00:12.548Z,100488.50
2023-05-14T03:02:39.636Z,100485.59
2023-05-14T03:05:06.723Z,100478.69
2023-05-14T03:07:33.372Z,100484.19
2023-05-14T03:10:00.788Z,100483.97
2023-05-14T03:12:27.389Z,100485.19
2023-05-14T03:14:54.065Z,100483.44
2023-05-14T03:17:20.829Z,100471.00
2023-05-14T03:19:47.523Z,100478.66
2023-05-14T03:22:14.526Z,100480.84
2023-05-14T03:24:41.201Z,100477.66
2023-05-14T03:27:07.886Z,100467.28
2023-05-14T03:29:34.561Z,100462.06
2023-05-14T03:32:01.196Z,100456.56
2023-05-14T03:34:27.912Z,100459.16
2023-05-14T03:36:54.649Z,100456.84
2023-05-14T03:39:21.419Z,100461.75
2023-05-14T03:41:48.449Z,100461.47
2023-05-14T03:44:15.022Z,100468.00
2023-05-14T03:46:41.704Z,100462.28
2023-05-14T03:49:09.078Z,100465.78
2023-05-14T03:51:35.855Z,100473.47
2023-05-14T03:54:03.413Z,100468.56
2023-05-14T03:56:30.001Z,100461.06
2023-05-14T03:58:56.658Z,100462.50
2023-05-14T04:01:23.408Z,100459.41
2023-05-14T04:03:50.276Z,100465.06
2023-05-14T04:06:17.009Z,100475.53
2023-05-14T04:08:43.739Z,100468.81
2023-05-14T04:11:10.429Z,100459.31
2023-05-14T04:13:37.071Z,100462.81
2023-05-14T04:16:03.917Z,100461.81
2023-05-14T04:18:31.063Z,100457.72
2023-05-14T04:20:57.664Z,100457.87
2023-05-14T04:23:24.302Z,100454.34
2023-05-14T04:25:50.915Z,100458.94
2023-05-14T04:28:17.611Z,100467.59
2023-05-14T04:30:44.219Z,100461.75
2023-05-14T04:33:11.180Z,100456.94
2023-05-14T04:35:38.032Z,100455.31
2023-05-14T04:38:04.660Z,100463.63
2023-05-14T04:40:32.111Z,100455.66
2023-05-14T04:42:58.739Z,100459.66
2023-05-14T04:45:26.697Z,100463.50
2023-05-14T04:47:53.410Z,100453.97
2023-05-14T04:50:20.098Z,100445.50
2023-05-14T04:52:46.826Z,100445.06
2023-05-14T04:55:13.535Z,100452.09
2023-05-14T04:57:40.159Z,100454.09
2023-05-14T05:00:07.566Z,100438.47
2023-05-14T05:02:35.032Z,100448.44
2023-05-14T05:05:01.863Z,100442.72
2023-05-14T05:07:28.520Z,100430.59
2023-05-14T05:09:55.174Z,100432.66
2023-05-14T05:12:21.823Z,100438.41
2023-05-14T05:14:48.510Z,100436.41
2023-05-14T05:17:15.138Z,100440.91
2023-05-14T05:19:44.163Z,100434.69
2023-05-14T05:22:11.450Z,100426.94
2023-05-14T05:24:38.086Z,100426.06
2023-05-14T05:27:05.663Z,100426.19
2023-05-14T05:29:32.458Z,100425.88
2023-05-14T05:31:59.294Z,100418.25
2023-05-14T05:34:25.894Z,100416.16
2023-05-14T05:36:52.523Z,100420.22
2023-05-14T05:39:19.156Z,100422.59
2023-05-14T05:41:45.887Z,100411.72
2023-05-14T05:44:12.569Z,100415.38
2023-05-14T05:46:39.378Z,100411.81
2023-05-14T05:49:06.261Z,100419.03
2023-05-14T05:51:33.426Z,100414.47
2023-05-14T05:54:00.122Z,100410.50
2023-05-14T05:56:26.824Z,100403.88
2023-05-14T05:58:53.460Z,100406.72
2023-05-14T06:01:20.232Z,100404.81
2023-05-14T06:03:48.504Z,100401.59
2023-05-14T06:06:15.808Z,100407.47
2023-05-14T06:08:42.465Z,100397.47
2023-05-14T06:11:09.196Z,100389.63
2023-05-14T06:13:36.175Z,100391.19
2023-05-14T06:16:02.819Z,100392.25
2023-05-14T06:18:29.582Z,100388.38
2023-05-14T06:20:57.802Z,100383.56
2023-05-14T06:23:24.535Z,100384.62
2023-05-14T06:25:51.390Z,100391.12
2023-05-14T06:28:18.235Z,100397.78
2023-05-14T06:30:44.964Z,100396.22
2023-05-14T06:33:13.579Z,100398.91
2023-05-14T06:35:40.297Z,100390.00
2023-05-14T06:38:06.992Z,100387.62
2023-05-14T06:40:33.648Z,100381.53
2023-05-14T06:43:00.277Z,100379.50
2023-05-14T06:45:26.905Z,100381.00
2023-05-14T06:47:53.692Z,100386.41
2023-05-14T06:50:20.523Z,100381.09
2023-05-14T06:52:47.173Z,100363.06
2023-05-14T06:55:13.843Z,100358.69
2023-05-14T06:57:40.943Z,100360.25
2023-05-14T07:00:09.285Z,100351.09
2023-05-14T07:02:36.137Z,100351.78
2023-05-14T07:05:03.229Z,100350.59
2023-05-14T07:07:29.908Z,100356.72
2023-05-14T07:09:56.567Z,100343.75
2023-05-14T07:12:23.182Z,100343.50
2023-05-14T07:14:50.162Z,100348.94
2023-05-14T07:17:16.945Z,100347.88
2023-05-14T07:19:43.711Z,100342.69
2023-05-14T07:22:10.429Z,100339.44
2023-05-14T07:24:37.216Z,100346.69
2023-05-14T07:27:03.974Z,100336.75
2023-05-14T07:29:30.994Z,100330.84
2023-05-14T07:31:57.613Z,100323.12
2023-05-14T07:34:24.308Z,100318.19
2023-05-14T07:36:51.011Z,100315.59
2023-05-14T07:39:17.687Z,100314.87
2023-05-14T07:41:44.538Z,100326.44
2023-05-14T07:44:11.180Z,100314.72
2023-05-14T07:46:37.786Z,100316.41
2023-05-14T07:49:04.513Z,100306.81
2023-05-14T07:51:31.883Z,100313.97
2023-05-14T07:53:58.653Z,100303.72
2023-05-14T07:56:25.810Z,100313.19
2023-05-14T07:58:52.461Z,100307.91
2023-05-14T08:01:19.097Z,100308.09
2023-05-14T08:03:46.047Z,100306.81
2023-05-14T08:06:12.761Z,100298.59
2023-05-14T08:08:39.554Z,100305.06
2023-05-14T08:11:06.583Z,100305.22
2023-05-14T08:13:33.357Z,100312.19
2023-05-14T08:16:00.487Z,100309.56
2023-05-14T08:18:27.235Z,100299.81
2023-05-14T08:20:53.812Z,100296.44
2023-05-14T08:23:20.754Z,100289.47
2023-05-14T08:25:47.543Z,100294.28
2023-05-14T08:28:14.321Z,100292.66
2023-05-14T08:30:41.141Z,100300.50
2023-05-14T08:33:07.985Z,100304.28
2023-05-14T08:35:34.713Z,100285.91
2023-05-14T08:38:01.500Z,100280.50
2023-05-14T08:40:28.487Z,100265.19
2023-05-14T08:42:57.146Z,100269.22
2023-05-14T08:45:28.119Z,100268.97
2023-05-14T08:47:56.043Z,100272.38
2023-05-14T08:50:23.792Z,100269.66
2023-05-14T08:52:50.979Z,100280.28
2023-05-14T08:55:17.962Z,100278.13
2023-05-14T08:57:44.755Z,100275.84
2023-05-14T09:00:12.116Z,100255.09
2023-05-14T09:02:39.973Z,100253.44
2023-05-14T09:05:09.952Z,100263.63
2023-05-14T09:07:36.886Z,100249.03
2023-05-14T09:10:04.198Z,100226.81
2023-05-14T09:12:31.400Z,100228.84
2023-05-14T09:14:58.085Z,100228.78
2023-05-14T09:17:26.018Z,100229.41
2023-05-14T09:19:53.342Z,100233.00
2023-05-14T09:22:20.295Z,100224.19
2023-05-14T09:25:01.571Z,100232.44
2023-05-14T09:27:29.796Z,100240.28
2023-05-14T09:29:56.493Z,100221.25
2023-05-14T09:32:24.768Z,100211.28
2023-05-14T09:34:52.976Z,100205.28
2023-05-14T09:37:19.629Z,100192.44
2023-05-14T09:40:48.300Z,100182.25
2023-05-14T09:43:15.205Z,100204.53
2023-05-14T09:45:41.920Z,100194.62
2023-05-14T09:48:08.653Z,100198.31
2023-05-14T09:50:41.870Z,100211.62
2023-05-14T09:53:08.508Z,100212.03
2023-05-14T09:55:36.745Z,100210.13
2023-05-14T09:58:04.020Z,100189.03
2023-05-14T10:00:33.948Z,100197.84
2023-05-14T10:03:04.867Z,100203.50
2023-05-14T10:05:33.340Z,100207.91
2023-05-14T10:08:02.553Z,100208.03
2023-05-14T10:10:30.541Z,100202.31
2023-05-14T10:13:06.960Z,100212.53
2023-05-14T10:16:06.088Z,100202.84
2023-05-14T10:18:35.768Z,100204.09
2023-05-14T10:21:06.402Z,100199.22
2023-05-14T10:23:33.910Z,100189.44
2023-05-14T10:26:01.000Z,100192.16
2023-05-14T10:28:28.136Z,100195.81
2023-05-14T10:30:54.958Z,100197.00
2023-05-14T10:33:21.719Z,100188.12
2023-05-14T10:36:07.405Z,100199.41
2023-05-14T10:38:35.153Z,100195.16
2023-05-14T10:41:03.518Z,100189.09
2023-05-14T10:43:31.294Z,100178.50
2023-05-14T10:45:58.730Z,100178.69
2023-05-14T10:48:26.050Z,100183.50
2023-05-14T10:50:53.274Z,100162.19
2023-05-14T10:53:20.311Z,100177.69
2023-05-14T10:55:47.427Z,100174.69
2023-05-14T10:58:15.185Z,100165.16
2023-05-14T11:00:42.122Z,100165.38
2023-05-14T11:03:08.923Z,100162.59
2023-05-14T11:05:37.436Z,100155.91
2023-05-14T11:08:06.970Z,100152.06
2023-05-14T11:10:34.117Z,100154.38
2023-05-14T11:13:00.817Z,100163.22
2023-05-14T11:15:28.524Z,100155.25
2023-05-14T11:17:55.357Z,100155.44
2023-05-14T11:20:22.355Z,100165.31
2023-05-14T11:22:51.830Z,100158.56
2023-05-14T11:25:19.098Z,100151.12
2023-05-14T11:27:46.959Z,100142.06
2023-05-14T11:30:14.630Z,100154.63
2023-05-14T11:32:41.853Z,100149.81
2023-05-14T11:35:08.845Z,100133.19
2023-05-14T11:37:35.796Z,100137.53
2023-05-14T11:40:02.722Z,100129.81
2023-05-14T11:42:29.325Z,100136.56
2023-05-14T11:44:56.039Z,100132.44
2023-05-14T11:47:22.868Z,100129.53
2023-05-14T11:49:49.945Z,100128.09
2023-05-14T11:52:19.536Z,100133.28
2023-05-14T11:54:46.679Z,100120.75
2023-05-14T11:57:15.767Z,100128.19
2023-05-14T11:59:42.979Z,100120.81
2023-05-14T12:02:13.367Z,100116.00
2023-05-14T12:04:40.529Z,100096.66
2023-05-14T12:07:11.089Z,100110.16
2023-05-14T12:09:41.514Z,100106.28
2023-05-14T12:12:11.240Z,100093.56
2023-05-14T12:14:39.053Z,100090.03
2023-05-14T12:17:16.105Z,100089.16
2023-05-14T12:19:43.736Z,100091.69
2023-05-14T12:22:10.900Z,100066.19
2023-05-14T12:24:37.781Z,100070.84
2023-05-14T12:27:04.475Z,100081.06
2023-05-14T12:29:31.288Z,100091.75
2023-05-14T12:32:04.790Z,100079.47
2023-05-14T12:34:31.471Z,100087.28
2023-05-14T12:36:58.237Z,100092.16
2023-05-14T12:39:25.231Z,100069.31
2023-05-14T12:41:51.926Z,100081.88
2023-05-14T12:44:18.968Z,100073.84
2023-05-14T12:46:46.252Z,100061.69
2023-05-14T12:49:12.943Z,100060.97
2023-05-14T12:51:39.615Z,100064.34
2023-05-14T12:54:06.252Z,100058.00
2023-05-14T12:56:32.992Z,100064.88
2023-05-14T12:58:59.788Z,100061.09
2023-05-14T13:01:26.407Z,100060.19
2023-05-14T13:03:53.247Z,100052.12
2023-05-14T13:06:19.925Z,100053.56
2023-05-14T13:08:46.697Z,100055.44
2023-05-14T13:11:13.523Z,100035.25
2023-05-14T13:13:40.300Z,100032.00
2023-05-14T13:16:07.216Z,100014.31
2023-05-14T13:18:34.066Z,100030.91
2023-05-14T13:21:00.987Z,100021.59
2023-05-14T13:23:27.706Z,100006.91
2023-05-14T13:25:54.485Z,100013.37
2023-05-14T13:28:21.426Z,100012.44
2023-05-14T13:31:03.886Z,100023.87
2023-05-14T13:33:30.877Z,100018.53
2023-05-14T13:35:57.590Z,100008.19
2023-05-14T13:38:24.215Z,100025.75
2023-05-14T13:40:50.808Z,100034.41
2023-05-14T13:43:17.454Z,100008.19
2023-05-14T13:45:44.048Z,99998.22
2023-05-14T13:48:10.814Z,100002.59
2023-05-14T13:50:37.535Z,100003.75
2023-05-14T13:53:04.286Z,99995.91
2023-05-14T13:55:30.897Z,99985.91
2023-05-14T13:57:57.592Z,99986.22
2023-05-14T14:00:24.528Z,99984.63
2023-05-14T14:02:51.265Z,99984.56
2023-05-14T14:05:18.200Z,99985.97
2023-05-14T14:07:44.906Z,99978.44
2023-05-14T14:10:12.601Z,99985.72
2023-05-14T14:12:39.220Z,99981.78
2023-05-14T14:15:06.217Z,99990.06
2023-05-14T14:17:34.888Z,99989.31
2023-05-14T14:20:01.573Z,99986.81
2023-05-14T14:22:29.297Z,99987.09
2023-05-14T14:24:56.173Z,99979.78
2023-05-14T14:27:22.862Z,99977.87
2023-05-14T14:29:49.616Z,99974.25
2023-05-14T14:32:16.297Z,99968.06
2023-05-14T14:34:42.939Z,99963.84
2023-05-14T14:37:09.669Z,99960.00
2023-05-14T14:39:36.385Z,99950.75
2023-05-14T14:42:03.053Z,99953.84
2023-05-14T14:44:29.719Z,99961.06
2023-05-14T14:46:56.337Z,99964.31
2023-05-14T14:49:23.774Z,99963.28
2023-05-14T14:51:50.493Z,99967.31
2023-05-14T14:54:17.221Z,99955.00
2023-05-14T14:56:45.991Z,99948.94
2023-05-14T14:59:12.605Z,99948.50
2023-05-14T15:01:39.442Z,99945.53
2023-05-14T15:04:06.166Z,99943.25
2023-05-14T15:06:32.835Z,99962.50
2023-05-14T15:08:59.771Z,99942.28
2023-05-14T15:11:26.583Z,99948.09
2023-05-14T15:13:53.246Z,99944.62
2023-05-14T15:16:20.015Z,99940.22
2023-05-14T15:18:46.796Z,99941.28
2023-05-14T15:21:13.451Z,99943.38
2023-05-14T15:23:40.108Z,99930.50
2023-05-14T15:26:06.785Z,99937.94
2023-05-14T15:28:33.537Z,99930.88
2023-05-14T15:31:00.332Z,99921.47
2023-05-14T15:33:26.929Z,99916.53
2023-05-14T15:35:53.580Z,99919.88
2023-05-14T15:38:20.242Z,99913.66
2023-05-14T15:40:46.988Z,99917.97
2023-05-14T15:43:13.699Z,99927.13
2023-05-14T15:45:40.413Z,99922.53
2023-05-14T15:48:07.119Z,99923.53
2023-05-14T15:50:33.874Z,99925.31
2023-05-14T15:53:00.581Z,99926.75
2023-05-14T15:55:27.257Z,99921.94
2023-05-14T15:57:53.960Z,99909.97
2023-05-14T16:00:21.168Z,99917.50
2023-05-14T16:02:48.119Z,99925.13
2023-05-14T16:05:15.458Z,99916.13
2023-05-14T16:07:42.983Z,99909.34
2023-05-14T16:10:09.882Z,99896.75
2023-05-14T16:12:36.558Z,99902.66
2023-05-14T16:15:03.305Z,99904.63
2023-05-14T16:17:31.957Z,99903.50
2023-05-14T16:20:00.171Z,99904.22
2023-05-14T16:22:27.583Z,99897.91
2023-05-14T16:24:54.192Z,99897.81
2023-05-14T16:27:21.155Z,99891.91
2023-05-14T16:29:47.982Z,99883.16
2023-05-14T16:32:14.773Z,99887.44
2023-05-14T16:34:41.580Z,99874.06
2023-05-14T16:37:08.727Z,99871.59
2023-05-14T16:39:36.280Z,99875.19
2023-05-14T16:42:04.466Z,99869.94
2023-05-14T16:44:31.607Z,99862.63
2023-05-14T16:46:58.255Z,99867.78
2023-05-14T16:49:25.064Z,99876.03
2023-05-14T16:51:51.752Z,99862.31
2023-05-14T16:54:18.403Z,99864.97
2023-05-14T16:56:48.377Z,99866.75
2023-05-14T16:59:15.980Z,99855.66
2023-05-14T17:01:43.013Z,99850.31
2023-05-14T17:04:09.824Z,99844.25
2023-05-14T17:06:36.774Z,99853.25
2023-05-14T17:09:03.909Z,99848.37
2023-05-14T17:11:30.676Z,99840.78
2023-05-14T17:13:57.425Z,99847.91
2023-05-14T17:16:25.470Z,99845.41
2023-05-14T17:18:52.237Z,99834.34
2023-05-14T17:21:18.862Z,99845.28
2023-05-14T17:23:45.589Z,99858.66
2023-05-14T17:26:12.352Z,99852.03
2023-05-14T17:28:39.296Z,99839.75
2023-05-14T17:31:06.488Z,99837.31
2023-05-14T17:33:33.332Z,99836.25
2023-05-14T17:36:00.471Z,99833.56
2023-05-14T17:38:27.079Z,99829.53
2023-05-14T17:40:53.822Z,99833.31
2023-05-14T17:43:20.842Z,99835.09
2023-05-14T17:48:20.358Z,99851.53
2023-05-14T17:50:47.290Z,99845.94
2023-05-14T17:53:14.083Z,99838.19
2023-05-14T17:55:43.771Z,99827.75
2023-05-14T17:58:11.707Z,99828.81
2023-05-14T18:00:38.558Z,99840.75
2023-05-14T18:03:05.623Z,99853.09
2023-05-14T18:05:32.693Z,99856.66
2023-05-14T18:08:00.075Z,99857.13
2023-05-14T18:10:27.094Z,99851.25
2023-05-14T18:12:53.698Z,99852.34
2023-05-14T18:15:20.541Z,99839.41
2023-05-14T18:17:47.380Z,99837.66
2023-05-14T18:20:14.053Z,99827.78
2023-05-14T18:22:40.968Z,99826.09
2023-05-14T18:25:08.495Z,99822.38
2023-05-14T18:27:35.463Z,99815.38
2023-05-14T18:30:02.768Z,99805.84
2023-05-14T18:32:29.522Z,99809.22
2023-05-14T18:34:56.384Z,99818.00
2023-05-14T18:37:23.049Z,99835.59
2023-05-14T18:39:49.700Z,99820.44
2023-05-14T18:42:17.016Z,99814.81
2023-05-14T18:44:44.816Z,99800.72
2023-05-14T18:47:11.561Z,99808.41
2023-05-14T18:49:42.526Z,99802.69
2023-05-14T18:52:09.301Z,99804.72
2023-05-14T18:54:35.954Z,99806.97
2023-05-14T18:57:02.558Z,99808.41
2023-05-14T18:59:29.238Z,99820.19
2023-05-14T19:01:55.962Z,99825.75
2023-05-14T19:04:22.985Z,99827.72
2023-05-14T19:06:50.188Z,99816.47
2023-05-14T19:09:21.338Z,99818.03
2023-05-14T19:11:48.498Z,99822.19
2023-05-14T19:14:15.150Z,99827.03
2023-05-14T19:16:41.950Z,99820.38
2023-05-14T19:19:08.870Z,99800.72
2023-05-14T19:21:35.870Z,99805.47
2023-05-14T19:24:02.580Z,99792.28
2023-05-14T19:26:29.335Z,99784.50
2023-05-14T19:28:58.710Z,99791.28
2023-05-14T19:31:26.024Z,99790.94
2023-05-14T19:33:55.490Z,99790.06
2023-05-14T19:36:22.314Z,99797.41
2023-05-14T19:38:49.007Z,99800.44
2023-05-14T19:41:15.744Z,99790.53
2023-05-14T19:43:42.539Z,99795.22
2023-05-14T19:46:09.301Z,99792.81
2023-05-14T19:48:36.105Z,99799.19
2023-05-14T19:51:03.489Z,99794.56
2023-05-14T19:53:30.370Z,99810.69
2023-05-14T19:55:57.420Z,99823.06
2023-05-14T19:58:24.594Z,99823.78
2023-05-14T20:00:53.480Z,99831.56
2023-05-14T20:03:23.701Z,99834.13
2023-05-14T20:05:50.424Z,99812.81
2023-05-14T20:08:19.153Z,99815.53
2023-05-14T20:10:45.864Z,99817.84
2023-05-14T20:13:12.688Z,99815.53
2023-05-14T20:15:39.743Z,99819.66
2023-05-14T20:18:06.568Z,99825.22
2023-05-14T20:20:34.070Z,99827.34
2023-05-14T20:23:00.873Z,99827.91
2023-05-14T20:25:28.733Z,99842.81
2023-05-14T20:27:55.596Z,99841.00
2023-05-14T20:30:22.440Z,99852.28
2023-05-14T20:32:49.423Z,99845.59
2023-05-14T20:35:16.209Z,99824.41
2023-05-14T20:37:42.936Z,99797.66
2023-05-14T20:40:12.897Z,99783.31
2023-05-14T20:42:39.646Z,99768.19
2023-05-14T20:45:07.155Z,99758.41
2023-05-14T20:47:34.441Z,99746.31
2023-05-14T20:50:01.591Z,99736.66
2023-05-14T20:52:28.266Z,99739.81
2023-05-14T20:54:54.970Z,99740.91
2023-05-14T20:57:21.798Z,99762.00
2023-05-14T20:59:49.176Z,99775.97
2023-05-14T21:02:16.009Z,99775.81
2023-05-14T21:04:42.899Z,99772.34
2023-05-14T21:07:09.698Z,99765.97
2023-05-14T21:09:37.374Z,99753.91
2023-05-14T21:12:04.246Z,99738.25
2023-05-14T21:14:30.965Z,99728.81
2023-05-14T21:16:57.595Z,99735.91
2023-05-14T21:19:24.375Z,99758.38
2023-05-14T21:21:51.052Z,99750.31
2023-05-14T21:24:17.817Z,99753.72
2023-05-14T21:26:44.624Z,99749.78
2023-05-14T21:29:11.533Z,99731.97
2023-05-14T21:31:38.464Z,99733.97
2023-05-14T21:34:05.183Z,99731.03
2023-05-14T21:36:32.015Z,99747.69
2023-05-14T21:38:58.629Z,99757.06
2023-05-14T21:41:25.300Z,99765.47
2023-05-14T21:43:51.939Z,99760.59
2023-05-14T21:46:18.623Z,99748.87
2023-05-14T21:48:45.370Z,99747.13
2023-05-14T21:51:12.099Z,99755.59
2023-05-14T21:53:38.811Z,99752.09
2023-05-14T21:56:06.206Z,99738.62
2023-05-14T21:58:32.987Z,99741.84
2023-05-14T22:00:59.679Z,99736.16
2023-05-14T22:03:26.533Z,99734.47
2023-05-14T22:05:53.344Z,99723.97
2023-05-14T22:08:20.034Z,99735.53
2023-05-14T22:10:47.144Z,99734.00
2023-05-14T22:13:13.861Z,99725.63
2023-05-14T22:15:41.011Z,99730.81
2023-05-14T22:18:07.989Z,99731.44
2023-05-14T22:20:34.701Z,99724.88
2023-05-14T22:23:01.418Z,99719.34
2023-05-14T22:25:28.148Z,99711.53
2023-05-14T22:27:54.821Z,99710.66
2023-05-14T22:30:21.565Z,99694.31
2023-05-14T22:32:48.320Z,99692.38
2023-05-14T22:35:15.018Z,99690.72
2023-05-14T22:37:41.922Z,99687.31
2023-05-14T22:40:09.319Z,99685.47
2023-05-14T22:42:36.116Z,99689.19
2023-05-14T22:45:02.857Z,99696.63
2023-05-14T22:47:29.692Z,99709.50
2023-05-14T22:49:56.340Z,99705.28
2023-05-14T22:52:22.946Z,99705.28
2023-05-14T22:54:53.367Z,99713.47
2023-05-14T22:57:20.066Z,99705.03
2023-05-14T22:59:46.731Z,99698.34
2023-05-14T23:02:13.467Z,99691.62
2023-05-14T23:04:40.224Z,99690.47
2023-05-14T23:07:07.160Z,99706.06
2023-05-14T23:09:33.824Z,99721.72
2023-05-14T23:12:00.491Z,99744.59
2023-05-14T23:14:27.185Z,99734.56
2023-05-14T23:16:53.833Z,99724.75
2023-05-14T23:19:21.349Z,99716.41
2023-05-14T23:21:47.995Z,99710.50
2023-05-14T23:24:14.757Z,99700.50
2023-05-14T23:26:41.382Z,99701.31
2023-05-14T23:29:08.142Z,99702.41
2023-05-14T23:31:35.480Z,99712.88
2023-05-14T23:34:02.258Z,99725.63
2023-05-14T23:36:31.631Z,99731.44
2023-05-14T23:38:58.893Z,99733.84
2023-05-14T23:41:26.211Z,99731.31
2023-05-14T23:43:55.264Z,99718.69
2023-05-14T23:46:22.420Z,99711.34
2023-05-14T23:48:49.215Z,99696.06
2023-05-14T23:51:15.964Z,99691.69
2023-05-14T23:53:42.550Z,99692.75
2023-05-14T23:56:09.717Z,99699.16
2023-05-14T23:58:36.371Z,99700.34
